createdAt,value
2023-04-25T00:01:38.566Z,99073.88
2023-04-25T00:03:41.014Z,99071.06
2023-04-25T00:05:42.824Z,99068.06
2023-04-25T00:07:44.359Z,99071.25
2023-04-25T00:09:45.823Z,99065.81
2023-04-25T00:11:47.212Z,99068.66
2023-04-25T00:13:49.468Z,99074.69
2023-04-25T00:15:51.330Z,99080.13
2023-04-25T00:17:53.967Z,99075.28
2023-04-25T00:19:55.577Z,99079.91
2023-04-25T00:21:57.088Z,99078.06
2023-04-25T00:23:58.460Z,99075.88
2023-04-25T00:25:59.891Z,99077.47
2023-04-25T00:28:01.355Z,99080.72
2023-04-25T00:30:03.595Z,99077.44
2023-04-25T00:32:05.363Z,99077.06
2023-04-25T00:34:07.655Z,99076.66
2023-04-25T00:36:09.452Z,99078.03
2023-04-25T00:38:10.820Z,99079.66
2023-04-25T00:40:12.749Z,99080.06
2023-04-25T00:42:14.761Z,99075.81
2023-04-25T00:44:17.846Z,99080.66
2023-04-25T00:46:19.290Z,99077.41
2023-04-25T00:48:24.061Z,99079.03
2023-04-25T00:50:25.626Z,99077.00
2023-04-25T00:52:27.074Z,99071.13
2023-04-25T00:54:28.725Z,99075.56
2023-04-25T00:56:30.503Z,99070.50
2023-04-25T00:58:31.980Z,99075.56
2023-04-25T01:00:33.845Z,99076.97
2023-04-25T01:02:36.719Z,99084.84
2023-04-25T01:04:38.728Z,99079.81
2023-04-25T01:06:41.430Z,99076.53
2023-04-25T01:08:42.858Z,99078.38
2023-04-25T01:10:44.320Z,99081.00
2023-04-25T01:12:45.767Z,99084.88
2023-04-25T01:14:47.881Z,99076.78
2023-04-25T01:16:49.368Z,99082.63
2023-04-25T01:18:52.189Z,99081.41
2023-04-25T01:20:54.551Z,99084.03
2023-04-25T01:22:56.461Z,99080.00
2023-04-25T01:27:36.828Z,99075.34
2023-04-25T01:29:38.498Z,99073.94
2023-04-25T01:31:40.319Z,99069.69
2023-04-25T01:33:41.817Z,99079.16
2023-04-25T01:35:43.393Z,99071.09
2023-04-25T01:37:45.950Z,99077.38
2023-04-25T01:39:47.797Z,99077.78
2023-04-25T01:41:50.076Z,99077.34
2023-04-25T01:43:51.828Z,99082.78
2023-04-25T01:45:53.590Z,99081.56
2023-04-25T01:47:55.293Z,99087.84
2023-04-25T01:49:56.978Z,99079.59
2023-04-25T01:51:58.402Z,99082.81
2023-04-25T01:54:01.074Z,99094.13
2023-04-25T01:56:02.665Z,99092.91
2023-04-25T01:58:04.668Z,99093.53
2023-04-25T02:00:07.984Z,99097.56
2023-04-25T02:02:09.407Z,99102.59
2023-04-25T02:04:11.033Z,99102.81
2023-04-25T02:06:12.648Z,99101.59
2023-04-25T02:08:14.043Z,99107.63
2023-04-25T02:10:15.968Z,99103.00
2023-04-25T02:12:17.555Z,99107.44
2023-04-25T02:14:19.011Z,99101.78
2023-04-25T02:16:20.572Z,99104.22
2023-04-25T02:18:22.321Z,99103.81
2023-04-25T02:20:25.025Z,99111.09
2023-04-25T02:22:27.803Z,99104.00
2023-04-25T02:24:29.220Z,99103.63
2023-04-25T02:26:31.227Z,99108.66
2023-04-25T02:28:32.623Z,99108.25
2023-04-25T02:30:34.087Z,99111.50
2023-04-25T02:32:35.634Z,99117.53
2023-04-25T02:34:37.533Z,99113.31
2023-04-25T02:36:39.025Z,99113.31
2023-04-25T02:38:40.724Z,99121.75
2023-04-25T02:40:42.309Z,99113.72
2023-04-25T02:42:43.791Z,99113.31
2023-04-25T02:44:45.207Z,99122.38
2023-04-25T02:46:46.694Z,99116.75
2023-04-25T02:48:48.239Z,99124.59
2023-04-25T02:50:49.728Z,99125.38
2023-04-25T02:52:51.538Z,99122.19
2023-04-25T02:54:52.979Z,99119.94
2023-04-25T02:56:54.368Z,99121.38
2023-04-25T02:58:56.018Z,99123.81
2023-04-25T03:00:57.507Z,99124.00
2023-04-25T03:02:59.118Z,99118.13
2023-04-25T03:05:00.624Z,99121.97
2023-04-25T03:07:02.073Z,99124.59
2023-04-25T03:09:03.506Z,99122.19
2023-04-25T03:11:04.984Z,99122.19
2023-04-25T03:13:06.424Z,99119.75
2023-04-25T03:15:08.441Z,99118.53
2023-04-25T03:17:09.843Z,99133.69
2023-04-25T03:19:11.316Z,99125.81
2023-04-25T03:21:12.743Z,99132.44
2023-04-25T03:23:14.153Z,99131.25
2023-04-25T03:25:15.678Z,99131.25
2023-04-25T03:27:18.100Z,99128.25
2023-04-25T03:29:19.617Z,99131.25
2023-04-25T03:31:21.563Z,99141.13
2023-04-25T03:33:23.361Z,99138.13
2023-04-25T03:35:25.935Z,99140.97
2023-04-25T03:37:27.669Z,99135.72
2023-04-25T03:39:29.053Z,99136.72
2023-04-25T03:41:30.747Z,99140.16
2023-04-25T03:43:32.226Z,99147.84
2023-04-25T03:45:33.844Z,99142.78
2023-04-25T03:47:35.344Z,99148.44
2023-04-25T03:49:37.165Z,99152.09
2023-04-25T03:51:38.976Z,99142.78
2023-04-25T03:53:40.502Z,99141.38
2023-04-25T03:55:43.524Z,99151.44
2023-04-25T03:57:45.174Z,99152.88
2023-04-25T03:59:46.602Z,99148.25
2023-04-25T04:01:48.022Z,99158.94
2023-04-25T04:03:49.754Z,99155.91
2023-04-25T04:05:51.609Z,99161.75
2023-04-25T04:07:53.148Z,99155.91
2023-04-25T04:09:54.513Z,99154.31
2023-04-25T04:11:56.009Z,99155.50
2023-04-25T04:13:57.410Z,99166.00
2023-04-25T04:15:58.998Z,99166.19
2023-04-25T04:18:03.730Z,99173.69
2023-04-25T04:20:06.913Z,99164.97
2023-04-25T04:22:08.304Z,99164.78
2023-04-25T04:24:09.826Z,99163.75
2023-04-25T04:26:12.330Z,99172.25
2023-04-25T04:28:14.148Z,99167.41
2023-04-25T04:30:15.898Z,99181.13
2023-04-25T04:32:18.240Z,99173.84
2023-04-25T04:34:19.632Z,99187.78
2023-04-25T04:36:22.782Z,99199.69
2023-04-25T04:38:24.890Z,99197.88
2023-04-25T04:40:26.552Z,99201.31
2023-04-25T04:42:29.082Z,99203.50
2023-04-25T04:44:33.604Z,99184.16
2023-04-25T04:46:42.894Z,99187.38
2023-04-25T04:48:45.468Z,99197.69
2023-04-25T04:50:47.077Z,99201.28
2023-04-25T04:52:48.519Z,99196.69
2023-04-25T04:54:49.983Z,99205.72
2023-04-25T04:56:52.144Z,99203.31
2023-04-25T04:58:53.542Z,99203.31
2023-04-25T05:00:54.997Z,99203.72
2023-04-25T05:02:57.676Z,99216.03
2023-04-25T05:04:59.298Z,99220.25
2023-04-25T05:07:00.735Z,99215.03
2023-04-25T05:09:02.152Z,99224.88
2023-04-25T05:11:03.786Z,99221.28
2023-04-25T05:13:05.199Z,99222.50
2023-04-25T05:15:07.144Z,99228.13
2023-04-25T05:17:09.491Z,99225.69
2023-04-25T05:19:10.988Z,99226.09
2023-04-25T05:21:12.389Z,99232.75
2023-04-25T05:23:13.817Z,99240.22
2023-04-25T05:25:15.227Z,99234.56
2023-04-25T05:27:19.606Z,99236.81
2023-04-25T05:29:21.008Z,99243.66
2023-04-25T05:31:22.403Z,99248.28
2023-04-25T05:33:23.828Z,99251.91
2023-04-25T05:35:25.369Z,99251.09
2023-04-25T05:37:26.853Z,99256.78
2023-04-25T05:39:28.401Z,99251.31
2023-04-25T05:41:29.801Z,99250.53
2023-04-25T05:43:31.513Z,99251.94
2023-04-25T05:45:32.893Z,99262.44
2023-04-25T05:47:34.383Z,99261.03
2023-04-25T05:49:35.925Z,99267.88
2023-04-25T05:51:37.333Z,99267.69
2023-04-25T05:53:38.777Z,99271.31
2023-04-25T05:55:40.170Z,99267.88
2023-04-25T05:57:42.464Z,99277.16
2023-04-25T05:59:43.891Z,99277.16
2023-04-25T06:01:45.561Z,99276.97
2023-04-25T06:03:47.330Z,99271.56
2023-04-25T06:05:48.960Z,99280.22
2023-04-25T06:07:50.540Z,99275.16
2023-04-25T06:09:52.035Z,99276.81
2023-04-25T06:11:53.443Z,99287.88
2023-04-25T06:13:55.213Z,99287.69
2023-04-25T06:15:56.753Z,99292.50
2023-04-25T06:17:58.258Z,99283.81
2023-04-25T06:19:59.793Z,99289.06
2023-04-25T06:22:01.449Z,99287.22
2023-04-25T06:24:03.014Z,99288.84
2023-04-25T06:26:04.670Z,99297.13
2023-04-25T06:28:06.101Z,99298.38
2023-04-25T06:30:08.149Z,99300.38
2023-04-25T06:32:09.576Z,99295.13
2023-04-25T06:34:11.136Z,99298.13
2023-04-25T06:36:12.561Z,99307.59
2023-04-25T06:38:14.058Z,99301.72
2023-04-25T06:40:15.894Z,99307.03
2023-04-25T06:42:17.330Z,99300.94
2023-04-25T06:44:18.749Z,99313.28
2023-04-25T06:46:20.402Z,99307.78
2023-04-25T06:48:21.845Z,99302.75
2023-04-25T06:50:23.306Z,99305.00
2023-04-25T06:52:24.684Z,99313.81
2023-04-25T06:54:28.085Z,99303.56
2023-04-25T06:56:30.613Z,99307.34
2023-04-25T06:58:32.016Z,99311.16
2023-04-25T07:00:34.539Z,99311.59
2023-04-25T07:02:36.725Z,99310.41
2023-04-25T07:04:38.603Z,99319.09
2023-04-25T07:06:43.521Z,99310.06
2023-04-25T07:08:45.010Z,99305.59
2023-04-25T07:10:49.663Z,99315.56
2023-04-25T07:12:51.479Z,99317.13
2023-04-25T07:14:52.911Z,99312.13
2023-04-25T07:16:54.525Z,99313.69
2023-04-25T07:18:56.344Z,99316.47
2023-04-25T07:20:57.732Z,99316.72
2023-04-25T07:22:59.122Z,99324.78
2023-04-25T07:25:01.043Z,99332.78
2023-04-25T07:27:03.398Z,99318.75
2023-04-25T07:29:04.842Z,99327.72
2023-04-25T07:31:06.344Z,99325.31
2023-04-25T07:33:07.854Z,99332.78
2023-04-25T07:35:09.518Z,99329.94
2023-04-25T07:37:11.374Z,99329.28
2023-04-25T07:39:12.850Z,99327.09
2023-04-25T07:41:14.302Z,99337.22
2023-04-25T07:43:17.617Z,99330.47
2023-04-25T07:45:19.016Z,99339.06
2023-04-25T07:47:20.600Z,99342.94
2023-04-25T07:49:22.060Z,99344.22
2023-04-25T07:51:23.594Z,99354.16
2023-04-25T07:53:25.027Z,99359.56
2023-04-25T07:55:27.193Z,99358.56
2023-04-25T07:57:28.707Z,99359.19
2023-04-25T07:59:30.503Z,99355.56
2023-04-25T08:01:32.060Z,99360.31
2023-04-25T08:03:33.668Z,99357.75
2023-04-25T08:05:35.699Z,99367.69
2023-04-25T08:07:37.196Z,99364.56
2023-04-25T08:09:38.638Z,99369.59
2023-04-25T08:11:40.568Z,99369.09
2023-04-25T08:13:41.940Z,99372.88
2023-04-25T08:15:43.429Z,99377.34
2023-04-25T08:17:45.070Z,99386.88
2023-04-25T08:19:46.590Z,99386.03
2023-04-25T08:21:48.025Z,99382.47
2023-04-25T08:23:49.404Z,99387.50
2023-04-25T08:25:50.801Z,99390.88
2023-04-25T08:27:52.234Z,99400.03
2023-04-25T08:29:53.671Z,99391.66
2023-04-25T08:31:55.401Z,99404.91
2023-04-25T08:33:57.024Z,99405.19
2023-04-25T08:35:58.600Z,99409.13
2023-04-25T08:38:00.280Z,99413.00
2023-04-25T08:40:01.709Z,99409.56
2023-04-25T08:42:08.693Z,99421.69
2023-04-25T08:44:11.548Z,99415.00
2023-04-25T08:46:13.835Z,99422.81
2023-04-25T08:48:17.105Z,99432.53
2023-04-25T08:50:20.275Z,99436.00
2023-04-25T08:52:27.273Z,99439.41
2023-04-25T08:54:34.379Z,99437.38
2023-04-25T08:56:44.673Z,99433.50
2023-04-25T08:58:46.965Z,99441.88
2023-04-25T09:00:49.449Z,99445.25
2023-04-25T09:02:51.366Z,99440.78
2023-04-25T09:04:55.953Z,99445.41
2023-04-25T09:06:57.932Z,99452.78
2023-04-25T09:09:05.736Z,99448.94
2023-04-25T09:11:08.473Z,99454.88
2023-04-25T09:13:15.990Z,99455.97
2023-04-25T09:15:20.835Z,99460.72
2023-04-25T09:17:22.704Z,99456.41
2023-04-25T09:19:39.852Z,99471.59
2023-04-25T09:21:42.726Z,99465.81
2023-04-25T09:23:49.361Z,99472.06
2023-04-25T09:25:53.289Z,99472.03
2023-04-25T09:27:55.228Z,99480.38
2023-04-25T09:30:01.532Z,99475.75
2023-04-25T09:32:12.645Z,99478.69
2023-04-25T09:34:16.641Z,99488.94
2023-04-25T09:36:18.030Z,99483.22
2023-04-25T09:38:19.521Z,99485.22
2023-04-25T09:40:21.173Z,99485.16
2023-04-25T09:42:27.659Z,99485.59
2023-04-25T09:44:29.162Z,99489.22
2023-04-25T09:46:37.446Z,99493.63
2023-04-25T09:48:39.227Z,99493.19
2023-04-25T09:50:41.284Z,99477.56
2023-04-25T09:52:42.854Z,99491.81
2023-04-25T09:54:46.079Z,99488.59
2023-04-25T09:56:51.944Z,99495.69
2023-04-25T09:58:55.860Z,99505.84
2023-04-25T10:01:01.786Z,99515.66
2023-04-25T10:03:06.507Z,99517.41
2023-04-25T10:05:09.396Z,99516.97
2023-04-25T10:07:12.049Z,99517.84
2023-04-25T10:09:14.591Z,99518.31
2023-04-25T10:11:17.442Z,99518.84
2023-04-25T10:13:19.658Z,99521.03
2023-04-25T10:15:22.788Z,99514.47
2023-04-25T10:17:24.543Z,99518.13
2023-04-25T10:19:27.815Z,99520.13
2023-04-25T10:21:31.496Z,99521.72
2023-04-25T10:23:33.280Z,99525.84
2023-04-25T10:25:35.548Z,99525.53
2023-04-25T10:27:38.084Z,99523.34
2023-04-25T10:29:39.559Z,99522.00
2023-04-25T10:31:48.262Z,99530.69
2023-04-25T10:33:50.388Z,99531.81
2023-04-25T10:35:52.039Z,99523.53
2023-04-25T10:38:26.199Z,99523.97
2023-04-25T10:40:27.838Z,99522.66
2023-04-25T10:42:29.842Z,99523.78
2023-04-25T10:44:32.204Z,99519.31
2023-04-25T10:46:35.057Z,99519.81
2023-04-25T10:48:36.596Z,99528.81
2023-04-25T10:50:40.202Z,99517.91
2023-04-25T10:52:41.930Z,99526.13
2023-04-25T10:54:54.808Z,99532.25
2023-04-25T10:57:01.284Z,99526.22
2023-04-25T10:59:11.019Z,99527.19
2023-04-25T11:01:20.279Z,99534.84
2023-04-25T11:03:23.146Z,99532.00
2023-04-25T11:05:51.153Z,99533.75
2023-04-25T11:08:07.572Z,99532.94
2023-04-25T11:10:09.899Z,99528.09
2023-04-25T11:14:34.169Z,99540.19
2023-04-25T11:14:38.115Z,99534.28
2023-04-25T11:16:37.357Z,99536.50
2023-04-25T11:18:39.810Z,99542.13
2023-04-25T11:20:44.182Z,99542.31
2023-04-25T11:22:47.592Z,99542.88
2023-04-25T11:24:49.350Z,99549.84
2023-04-25T11:26:51.032Z,99555.72
2023-04-25T11:28:52.465Z,99556.16
2023-04-25T11:30:53.953Z,99567.69
2023-04-25T11:32:55.803Z,99560.78
2023-04-25T11:34:58.601Z,99559.75
2023-04-25T11:37:01.523Z,99569.59
2023-04-25T11:39:03.019Z,99567.91
2023-04-25T11:41:04.582Z,99581.50
2023-04-25T11:43:06.030Z,99581.91
2023-04-25T11:45:08.016Z,99586.03
2023-04-25T11:47:09.477Z,99584.13
2023-04-25T11:49:11.137Z,99577.00
2023-04-25T11:51:12.897Z,99575.84
2023-04-25T11:53:14.569Z,99586.94
2023-04-25T11:55:17.888Z,99584.03
2023-04-25T11:57:22.097Z,99579.84
2023-04-25T11:59:27.500Z,99580.09
2023-04-25T12:01:31.674Z,99571.19
2023-04-25T12:03:34.253Z,99584.75
2023-04-25T12:05:37.050Z,99584.84
2023-04-25T12:07:39.198Z,99580.53
2023-04-25T12:09:41.464Z,99588.13
2023-04-25T12:11:44.653Z,99586.75
2023-04-25T12:13:46.073Z,99601.66
2023-04-25T12:15:47.712Z,99581.31
2023-04-25T12:17:52.410Z,99581.50
2023-04-25T12:19:53.851Z,99578.97
2023-04-25T12:21:58.619Z,99578.88
2023-04-25T12:24:28.591Z,99584.31
2023-04-25T12:27:06.958Z,99596.78
2023-04-25T12:29:47.859Z,99589.19
2023-04-25T12:31:51.235Z,99585.72
2023-04-25T12:33:52.753Z,99587.09
2023-04-25T12:35:55.111Z,99590.06
2023-04-25T12:37:56.745Z,99580.13
2023-04-25T12:39:58.179Z,99599.28
2023-04-25T12:42:00.655Z,99592.56
2023-04-25T12:44:02.073Z,99591.31
2023-04-25T12:46:04.164Z,99590.19
2023-04-25T12:48:05.744Z,99575.03
2023-04-25T12:50:07.738Z,99577.94
2023-04-25T12:52:09.176Z,99587.91
2023-04-25T12:54:10.968Z,99591.09
2023-04-25T12:56:12.446Z,99580.94
2023-04-25T12:58:18.417Z,99581.44
2023-04-25T13:00:20.946Z,99576.91
2023-04-25T13:02:22.928Z,99588.16
2023-04-25T13:04:24.887Z,99591.66
2023-04-25T13:06:27.178Z,99592.94
2023-04-25T13:08:28.621Z,99595.34
2023-04-25T13:10:30.486Z,99594.63
2023-04-25T13:12:32.023Z,99599.84
2023-04-25T13:14:33.447Z,99596.13
2023-04-25T13:16:34.874Z,99591.63
2023-04-25T13:18:36.349Z,99594.53
2023-04-25T13:20:37.835Z,99596.16
2023-04-25T13:22:40.293Z,99597.34
2023-04-25T13:24:41.857Z,99594.38
2023-04-25T13:26:43.393Z,99592.59
2023-04-25T13:28:45.129Z,99602.81
2023-04-25T13:30:46.770Z,99615.34
2023-04-25T13:32:48.395Z,99614.78
2023-04-25T13:34:49.805Z,99617.03
2023-04-25T13:36:51.196Z,99609.59
2023-04-25T13:38:52.610Z,99621.03
2023-04-25T13:40:54.363Z,99610.63
2023-04-25T13:42:57.055Z,99613.56
2023-04-25T13:44:58.526Z,99611.09
2023-04-25T13:47:01.658Z,99615.31
2023-04-25T13:49:12.298Z,99617.91
2023-04-25T13:51:14.547Z,99602.84
2023-04-25T13:53:16.004Z,99612.72
2023-04-25T13:55:17.507Z,99607.31
2023-04-25T13:57:19.362Z,99610.06
2023-04-25T13:59:20.783Z,99600.41
2023-04-25T14:01:22.494Z,99612.38
2023-04-25T14:03:24.043Z,99625.69
2023-04-25T14:05:25.723Z,99619.38
2023-04-25T14:07:27.229Z,99620.72
2023-04-25T14:09:29.147Z,99624.72
2023-04-25T14:11:30.637Z,99633.69
2023-04-25T14:13:34.874Z,99635.84
2023-04-25T14:15:36.361Z,99642.59
2023-04-25T14:17:38.435Z,99640.75
2023-04-25T14:19:44.153Z,99638.69
2023-04-25T14:21:45.661Z,99637.41
2023-04-25T14:23:49.530Z,99627.06
2023-04-25T14:25:51.284Z,99627.56
2023-04-25T14:27:52.799Z,99627.91
2023-04-25T14:29:54.320Z,99621.50
2023-04-25T14:31:57.383Z,99618.75
2023-04-25T14:33:59.788Z,99621.81
2023-04-25T14:36:01.385Z,99610.63
2023-04-25T14:38:02.864Z,99625.03
2023-04-25T14:40:05.574Z,99611.66
2023-04-25T14:42:06.992Z,99604.19
2023-04-25T14:44:09.262Z,99604.56
2023-04-25T14:46:11.860Z,99616.63
2023-04-25T14:48:13.599Z,99614.72
2023-04-25T14:50:15.274Z,99616.09
2023-04-25T14:52:16.804Z,99613.72
2023-04-25T14:54:18.297Z,99607.69
2023-04-25T14:56:19.965Z,99628.00
2023-04-25T14:58:21.516Z,99624.34
2023-04-25T15:00:23.496Z,99633.53
2023-04-25T15:02:25.499Z,99631.72
2023-04-25T15:04:27.439Z,99629.88
2023-04-25T15:06:30.412Z,99625.00
2023-04-25T15:08:32.199Z,99624.41
2023-04-25T15:10:34.080Z,99627.72
2023-04-25T15:12:35.524Z,99628.50
2023-04-25T15:14:37.085Z,99625.72
2023-04-25T15:16:38.522Z,99629.91
2023-04-25T15:18:39.916Z,99636.78
2023-04-25T15:20:41.419Z,99636.13
2023-04-25T15:22:44.694Z,99636.03
2023-04-25T15:24:46.159Z,99642.22
2023-04-25T15:26:47.605Z,99649.66
2023-04-25T15:28:49.465Z,99653.13
2023-04-25T15:30:51.392Z,99652.72
2023-04-25T15:32:52.814Z,99649.00
2023-04-25T15:34:54.190Z,99651.53
2023-04-25T15:36:55.632Z,99650.00
2023-04-25T15:38:57.591Z,99642.09
2023-04-25T15:40:59.041Z,99652.63
2023-04-25T15:43:00.563Z,99651.56
2023-04-25T15:45:02.691Z,99658.44
2023-04-25T15:47:04.141Z,99648.25
2023-04-25T15:49:05.571Z,99652.00
2023-04-25T15:51:07.327Z,99653.41
2023-04-25T15:53:08.782Z,99652.69
2023-04-25T15:55:11.561Z,99647.00
2023-04-25T15:57:13.217Z,99653.00
2023-04-25T15:59:14.646Z,99653.38
2023-04-25T16:01:16.518Z,99654.69
2023-04-25T16:03:18.268Z,99651.53
2023-04-25T16:05:20.397Z,99650.03
2023-04-25T16:07:22.028Z,99654.63
2023-04-25T16:09:23.433Z,99657.00
2023-04-25T16:11:24.960Z,99649.50
2023-04-25T16:13:27.458Z,99656.34
2023-04-25T16:15:28.827Z,99653.16
2023-04-25T16:17:30.398Z,99652.19
2023-04-25T16:19:32.505Z,99654.09
2023-04-25T16:21:33.850Z,99664.88
2023-04-25T16:23:35.284Z,99657.94
2023-04-25T16:25:36.638Z,99658.47
2023-04-25T16:27:39.319Z,99664.56
2023-04-25T16:29:41.346Z,99668.44
2023-04-25T16:31:43.458Z,99657.00
2023-04-25T16:33:44.950Z,99661.63
2023-04-25T16:35:46.392Z,99671.34
2023-04-25T16:37:48.309Z,99671.56
2023-04-25T16:39:49.772Z,99673.53
2023-04-25T16:41:51.945Z,99672.31
2023-04-25T16:43:53.995Z,99682.28
2023-04-25T16:45:55.908Z,99689.81
2023-04-25T16:47:57.386Z,99694.59
2023-04-25T16:50:00.932Z,99679.19
2023-04-25T16:52:02.508Z,99693.72
2023-04-25T16:54:04.064Z,99686.19
2023-04-25T16:56:07.532Z,99692.09
2023-04-25T16:58:11.881Z,99692.53
2023-04-25T17:00:14.122Z,99684.53
2023-04-25T17:02:15.868Z,99687.59
2023-04-25T17:04:17.536Z,99690.44
2023-04-25T17:06:19.218Z,99694.88
2023-04-25T17:08:20.827Z,99691.47
2023-04-25T17:10:22.915Z,99687.63
2023-04-25T17:12:24.343Z,99696.63
2023-04-25T17:14:26.881Z,99687.03
2023-04-25T17:16:38.538Z,99693.34
2023-04-25T17:18:40.012Z,99692.47
2023-04-25T17:20:41.597Z,99691.59
2023-04-25T17:22:43.537Z,99691.06
2023-04-25T17:24:44.973Z,99697.59
2023-04-25T17:26:48.248Z,99695.19
2023-04-25T17:28:50.593Z,99704.25
2023-04-25T17:30:52.222Z,99707.44
2023-04-25T17:32:53.973Z,99712.03
2023-04-25T17:34:56.742Z,99706.47
2023-04-25T17:36:58.150Z,99711.59
2023-04-25T17:38:59.564Z,99709.44
2023-04-25T17:41:01.649Z,99704.00
2023-04-25T17:43:03.134Z,99706.88
2023-04-25T17:45:05.292Z,99711.78
2023-04-25T17:47:08.626Z,99709.25
2023-04-25T17:49:10.261Z,99705.31
2023-04-25T17:51:11.729Z,99704.16
2023-04-25T17:53:13.129Z,99702.72
2023-04-25T17:55:14.567Z,99709.53
2023-04-25T17:57:16.338Z,99712.53
2023-04-25T17:59:19.231Z,99717.09
2023-04-25T18:01:20.717Z,99719.09
2023-04-25T18:03:22.482Z,99716.38
2023-04-25T18:05:24.961Z,99722.63
2023-04-25T18:07:26.390Z,99725.81
2023-04-25T18:09:27.836Z,99724.22
2023-04-25T18:11:29.975Z,99728.88
2023-04-25T18:13:31.394Z,99731.94
2023-04-25T18:15:32.801Z,99746.75
2023-04-25T18:17:39.636Z,99739.03
2023-04-25T18:19:41.136Z,99736.19
2023-04-25T18:21:45.858Z,99751.91
2023-04-25T18:23:47.520Z,99744.13
2023-04-25T18:25:51.868Z,99752.88
2023-04-25T18:27:53.437Z,99753.31
2023-04-25T18:29:54.824Z,99751.50
2023-04-25T18:31:56.344Z,99754.56
2023-04-25T18:33:58.461Z,99752.50
2023-04-25T18:36:00.018Z,99760.63
2023-04-25T18:38:01.535Z,99759.00
2023-04-25T18:40:06.595Z,99764.28
2023-04-25T18:42:08.453Z,99773.41
2023-04-25T18:44:09.819Z,99781.91
2023-04-25T18:46:11.669Z,99782.94
2023-04-25T18:48:13.177Z,99795.50
2023-04-25T18:50:15.479Z,99797.53
2023-04-25T18:52:17.687Z,99799.13
2023-04-25T18:54:19.055Z,99797.13
2023-04-25T18:56:22.599Z,99804.41
2023-04-25T18:58:24.057Z,99801.78
2023-04-25T19:00:25.500Z,99800.13
2023-04-25T19:02:27.011Z,99805.00
2023-04-25T19:04:29.729Z,99805.81
2023-04-25T19:06:31.272Z,99800.09
2023-04-25T19:08:32.690Z,99804.94
2023-04-25T19:10:34.328Z,99811.00
2023-04-25T19:12:35.720Z,99816.03
2023-04-25T19:14:37.126Z,99822.09
2023-04-25T19:19:05.813Z,99821.41
2023-04-25T19:21:08.493Z,99830.53
2023-04-25T19:23:11.017Z,99830.69
2023-04-25T19:25:12.512Z,99834.53
2023-04-25T19:29:44.205Z,99838.53
2023-04-25T19:31:45.699Z,99832.47
2023-04-25T19:33:47.242Z,99835.50
2023-04-25T19:35:48.631Z,99841.59
2023-04-25T19:37:50.463Z,99839.16
2023-04-25T19:39:51.851Z,99836.50
2023-04-25T19:41:54.354Z,99837.28
2023-04-25T19:43:55.801Z,99840.88
2023-04-25T19:45:57.604Z,99848.31
2023-04-25T19:47:59.215Z,99848.47
2023-04-25T19:50:01.189Z,99847.44
2023-04-25T19:52:03.673Z,99853.66
2023-04-25T19:54:05.445Z,99860.91
2023-04-25T19:56:09.409Z,99861.66
2023-04-25T19:58:10.787Z,99854.19
2023-04-25T20:00:14.555Z,99868.88
2023-04-25T20:02:18.256Z,99866.44
2023-04-25T20:04:19.754Z,99867.44
2023-04-25T20:06:21.566Z,99867.66
2023-04-25T20:08:24.733Z,99868.03
2023-04-25T20:10:27.321Z,99866.53
2023-04-25T20:12:29.984Z,99862.41
2023-04-25T20:14:33.021Z,99860.16
2023-04-25T20:16:34.745Z,99864.50
2023-04-25T20:18:36.276Z,99865.88
2023-04-25T20:20:37.767Z,99867.72
2023-04-25T20:22:40.585Z,99872.06
2023-04-25T20:24:42.293Z,99877.22
2023-04-25T20:26:45.079Z,99875.81
2023-04-25T20:28:46.797Z,99872.13
2023-04-25T20:30:48.429Z,99875.31
2023-04-25T20:32:50.043Z,99879.84
2023-04-25T20:34:51.607Z,99879.78
2023-04-25T20:36:53.072Z,99882.41
2023-04-25T20:38:54.823Z,99887.75
2023-04-25T20:40:56.510Z,99877.69
2023-04-25T20:42:58.174Z,99887.94
2023-04-25T20:44:59.633Z,99887.88
2023-04-25T20:47:01.018Z,99888.41
2023-04-25T20:49:05.032Z,99887.31
2023-04-25T20:51:07.170Z,99890.50
2023-04-25T20:53:08.881Z,99887.78
2023-04-25T20:55:11.704Z,99888.69
2023-04-25T20:57:13.119Z,99891.22
2023-04-25T20:59:15.310Z,99890.59
2023-04-25T21:01:16.804Z,99887.91
2023-04-25T21:03:18.513Z,99888.00
2023-04-25T21:05:22.197Z,99896.38
2023-04-25T21:07:23.644Z,99885.19
2023-04-25T21:09:25.343Z,99883.47
2023-04-25T21:11:27.444Z,99887.88
2023-04-25T21:13:29.069Z,99890.56
2023-04-25T21:15:30.767Z,99887.66
2023-04-25T21:17:32.170Z,99896.59
2023-04-25T21:19:33.956Z,99897.94
2023-04-25T21:21:35.624Z,99892.59
2023-04-25T21:23:37.064Z,99895.38
2023-04-25T21:25:38.621Z,99898.34
2023-04-25T21:27:39.999Z,99902.66
2023-04-25T21:29:41.418Z,99899.75
2023-04-25T21:31:43.586Z,99894.97
2023-04-25T21:33:45.064Z,99902.16
2023-04-25T21:35:46.459Z,99898.09
2023-04-25T21:37:48.363Z,99894.00
2023-04-25T21:39:49.985Z,99898.16
2023-04-25T21:41:51.368Z,99906.69
2023-04-25T21:43:59.186Z,99911.47
2023-04-25T21:48:04.889Z,99909.03
2023-04-25T21:50:07.355Z,99903.34
2023-04-25T21:52:09.675Z,99910.56
2023-04-25T21:54:11.054Z,99910.44
2023-04-25T21:56:12.562Z,99907.50
2023-04-25T21:58:14.066Z,99904.91
2023-04-25T22:00:25.032Z,99909.81
2023-04-25T22:02:27.799Z,99910.81
2023-04-25T22:04:29.767Z,99910.69
2023-04-25T22:06:32.154Z,99922.00
2023-04-25T22:08:33.594Z,99921.34
2023-04-25T22:10:35.394Z,99920.03
2023-04-25T22:12:37.375Z,99920.22
2023-04-25T22:14:38.908Z,99923.50
2023-04-25T22:16:40.374Z,99927.94
2023-04-25T22:18:42.234Z,99928.44
2023-04-25T22:20:44.278Z,99927.94
2023-04-25T22:22:46.326Z,99925.50
2023-04-25T22:24:49.654Z,99924.38
2023-04-25T22:26:51.173Z,99924.38
2023-04-25T22:28:52.779Z,99925.50
2023-04-25T22:30:54.870Z,99926.03
2023-04-25T22:32:56.365Z,99933.53
2023-04-25T22:34:57.796Z,99933.88
2023-04-25T22:36:59.538Z,99935.88
2023-04-25T22:39:00.956Z,99939.09
2023-04-25T22:41:02.386Z,99940.75
2023-04-25T22:43:03.775Z,99936.50
2023-04-25T22:45:08.082Z,99942.88
2023-04-25T22:47:09.530Z,99945.50
2023-04-25T22:49:10.943Z,99948.44
2023-04-25T22:51:12.613Z,99949.56
2023-04-25T22:53:14.137Z,99947.81
2023-04-25T22:55:15.599Z,99954.81
2023-04-25T22:57:17.054Z,99953.19
2023-04-25T22:59:20.691Z,99949.91
2023-04-25T23:01:22.133Z,99948.78
2023-04-25T23:03:23.686Z,99961.00
2023-04-25T23:05:25.155Z,99963.13
2023-04-25T23:07:26.515Z,99959.38
2023-04-25T23:09:27.871Z,99966.38
2023-04-25T23:11:29.340Z,99969.00
2023-04-25T23:13:31.565Z,99971.13
2023-04-25T23:15:33.264Z,99973.41
2023-04-25T23:17:35.205Z,99962.78
2023-04-25T23:19:36.663Z,99968.84
2023-04-25T23:21:38.146Z,99968.84
2023-04-25T23:23:39.900Z,99962.34
2023-04-25T23:25:41.337Z,99969.50
2023-04-25T23:27:43.622Z,99970.78
2023-04-25T23:29:53.099Z,99974.38
2023-04-25T23:31:54.520Z,99975.19
2023-04-25T23:33:56.016Z,99970.16
2023-04-25T23:35:57.446Z,99970.47
2023-04-25T23:37:58.858Z,99974.22
2023-04-25T23:40:00.340Z,99970.78
2023-04-25T23:42:01.732Z,99974.06
2023-04-25T23:44:03.534Z,99971.78
2023-04-25T23:46:05.121Z,99976.50
2023-04-25T23:48:06.719Z,99971.28
2023-04-25T23:50:08.635Z,99975.00
2023-04-25T23:52:10.064Z,99974.22
2023-04-25T23:54:12.036Z,99972.72
2023-04-25T23:56:13.433Z,99977.31
2023-04-25T23:58:14.828Z,99976.50
